Time;durP1;ratioP1;P1;durP2;ratioP2;P2;SDS_P1;SDS_P2;PMS_P1;PMS_P2;Temp;Humidity;BMP_temperature;BMP_pressure;BME280_temperature;BME280_humidity;BME280_pressure;Samples;Min_cycle;Max_cycle;Signal;HPM_P1;HPM_P2
2022/12/15 00:40:37;;;;;;;43.15;16.67;;;;;;;-10.54;100.00;97349.31;4220942;28;20042;-74
2022/12/15 00:42:38;;;;;;;41.75;17.48;;;;;;;-10.54;100.00;97346.66;4220359;27;20371;-74
2022/12/15 00:44:38;;;;;;;41.38;16.60;;;;;;;-10.56;100.00;97354.94;4220175;27;20113;-74
2022/12/15 00:46:53;;;;;;;46.00;18.15;;;;;;;-10.60;100.00;97348.53;4220998;28;20043;-74
2022/12/15 00:48:54;;;;;;;32.03;15.05;;;;;;;-10.49;100.00;97358.16;4220459;27;20036;-74
2022/12/15 00:50:54;;;;;;;43.08;18.67;;;;;;;-10.46;100.00;97358.69;4220513;27;20050;-74
2022/12/15 01:20:57;;;;;;;31.10;13.57;;;;;;;-10.65;100.00;97379.81;4220049;27;20142;-74
2022/12/15 01:22:57;;;;;;;33.58;13.77;;;;;;;-10.70;100.00;97388.63;4219352;28;20087;-74
2022/12/15 01:24:58;;;;;;;39.72;15.55;;;;;;;-10.75;100.00;97387.84;4216886;27;20044;-74
2022/12/15 01:26:58;;;;;;;33.97;15.40;;;;;;;-10.82;100.00;97396.13;4219472;27;20044;-74
2022/12/15 01:28:58;;;;;;;33.42;15.02;;;;;;;-10.81;100.00;97395.06;4220112;27;20439;-74
2022/12/15 01:31:00;;;;;;;29.93;13.80;;;;;;;-10.71;100.00;97395.06;4220080;27;20575;-74
2022/12/15 01:33:00;;;;;;;29.42;14.07;;;;;;;-10.77;100.00;97398.78;4218170;27;20046;-74
2022/12/15 01:35:01;;;;;;;34.75;16.13;;;;;;;-10.72;100.00;97400.66;4218791;28;20143;-74
2022/12/15 01:37:02;;;;;;;28.38;13.57;;;;;;;-10.69;100.00;97408.13;4220383;28;20055;-74
2022/12/15 01:39:02;;;;;;;32.97;15.30;;;;;;;-10.58;100.00;97407.09;4217807;27;20044;-74
2022/12/15 01:41:06;;;;;;;29.67;15.60;;;;;;;-10.59;100.00;97403.63;4219435;27;20616;-74
2022/12/15 01:43:16;;;;;;;27.50;13.35;;;;;;;-10.67;100.00;97403.31;4219314;27;20031;-74
2022/12/15 01:45:22;;;;;;;25.77;12.73;;;;;;;-10.59;100.00;97411.63;4218088;28;20071;-74
2022/12/15 01:47:24;;;;;;;35.83;15.93;;;;;;;-10.52;100.00;97417.50;4218644;27;20062;-74
2022/12/15 01:49:28;;;;;;;31.38;13.93;;;;;;;-10.46;100.00;97420.97;4219005;27;20510;-74
2022/12/15 01:51:33;;;;;;;31.20;14.02;;;;;;;-10.38;100.00;97428.47;4218479;27;20052;-74
2022/12/15 01:53:39;;;;;;;31.00;14.18;;;;;;;-10.36;100.00;97431.66;4216777;27;20123;-74
2022/12/15 01:55:41;;;;;;;27.92;12.30;;;;;;;-10.40;100.00;97427.94;4219482;27;20075;-74
2022/12/15 01:57:42;;;;;;;26.60;12.80;;;;;;;-10.33;100.00;97427.66;4217866;28;20801;-74
2022/12/15 01:59:52;;;;;;;29.23;13.70;;;;;;;-10.34;100.00;97421.50;4219222;27;20054;-74
2022/12/15 02:01:52;;;;;;;39.40;15.35;;;;;;;-10.28;100.00;97422.28;4216392;28;20043;-74
2022/12/15 02:03:53;;;;;;;29.63;14.23;;;;;;;-10.27;100.00;97438.06;4216792;28;20578;-74
2022/12/15 02:05:54;;;;;;;35.50;14.68;;;;;;;-10.24;100.00;97439.41;4217603;27;20047;-74
2022/12/15 02:07:55;;;;;;;31.92;14.07;;;;;;;-10.25;100.00;97437.81;4218196;27;20066;-74
2022/12/15 02:09:59;;;;;;;32.15;14.32;;;;;;;-10.28;100.00;97451.72;4216217;28;20046;-74
2022/12/15 02:12:09;;;;;;;24.83;12.68;;;;;;;-10.31;100.00;97439.69;4218635;28;20051;-74
2022/12/15 02:14:17;;;;;;;32.42;15.02;;;;;;;-10.43;100.00;97441.81;4216996;27;20117;-74
2022/12/15 02:16:29;;;;;;;31.13;13.23;;;;;;;-10.39;100.00;97458.16;4219203;27;20027;-74
2022/12/15 02:19:08;;;;;;;29.63;13.90;;;;;;;-10.50;100.00;97450.13;4217435;27;20391;-74
2022/12/15 02:21:17;;;;;;;28.95;14.07;;;;;;;-10.54;100.00;97458.94;4218321;28;20128;-74
2022/12/15 02:23:49;;;;;;;32.97;14.05;;;;;;;-10.49;100.00;97458.94;4216464;28;20044;-74
2022/12/15 02:26:21;;;;;;;29.00;13.48;;;;;;;-10.46;100.00;97457.59;4204849;28;20213;-74
2022/12/15 02:28:41;;;;;;;31.10;13.52;;;;;;;-10.45;100.00;97457.34;4218496;27;20055;-74
2022/12/15 02:33:26;;;;;;;31.42;14.20;;;;;;;-10.58;100.00;97456.00;4216923;28;20055;-74
2022/12/15 02:35:31;;;;;;;29.45;13.13;;;;;;;-10.56;100.00;97469.91;4216937;27;20048;-74
2022/12/15 02:37:34;;;;;;;30.63;14.52;;;;;;;-10.67;100.00;97459.44;4216993;27;20063;-74
2022/12/15 02:39:34;;;;;;;30.20;15.13;;;;;;;-10.56;100.00;97472.56;4218173;27;20079;-74
2022/12/15 02:41:40;;;;;;;32.58;14.43;;;;;;;-10.53;100.00;97481.94;4218225;27;20138;-74
2022/12/15 02:43:40;;;;;;;27.40;12.63;;;;;;;-10.59;100.00;97478.47;4216833;28;20040;-74
2022/12/15 02:45:53;;;;;;;32.00;14.13;;;;;;;-10.59;100.00;97477.63;4216425;28;20054;-74
2022/12/15 02:48:05;;;;;;;28.10;13.55;;;;;;;-10.63;100.00;97473.91;4218055;27;20282;-74
2022/12/15 02:50:47;;;;;;;31.50;13.37;;;;;;;-10.64;100.00;97477.66;4217110;28;20049;-74
2022/12/15 02:53:24;;;;;;;31.67;14.77;;;;;;;-10.72;100.00;97483.53;4214541;28;20054;-74
2022/12/15 02:55:46;;;;;;;27.40;13.13;;;;;;;-10.77;100.00;97484.31;4215917;27;20485;-74
2022/12/15 02:57:52;;;;;;;27.73;12.63;;;;;;;-10.77;100.00;97481.63;4217685;27;20660;-74
2022/12/15 03:00:13;;;;;;;37.65;16.15;;;;;;;-10.80;100.00;97490.19;4216448;27;20059;-74
2022/12/15 03:02:14;;;;;;;30.00;13.77;;;;;;;-10.84;100.00;97486.44;4218625;28;20047;-74
2022/12/15 03:04:15;;;;;;;31.00;14.25;;;;;;;-10.96;100.00;97492.03;4217543;28;20464;-74
2022/12/15 03:06:15;;;;;;;28.23;13.75;;;;;;;-11.07;100.00;97495.75;4216573;28;20028;-74
2022/12/15 03:08:16;;;;;;;38.42;15.32;;;;;;;-11.19;100.00;97493.28;4216992;27;20034;-74
2022/12/15 03:10:17;;;;;;;31.65;13.77;;;;;;;-11.30;100.00;97496.19;4216077;28;20031;-74
2022/12/15 03:12:17;;;;;;;32.38;13.48;;;;;;;-11.28;100.00;97500.19;4218888;28;20027;-74
2022/12/15 03:14:17;;;;;;;32.22;14.23;;;;;;;-11.20;100.00;97506.91;4217479;28;20498;-74
2022/12/15 03:16:18;;;;;;;35.40;14.82;;;;;;;-11.18;100.00;97512.78;4217672;28;20027;-74
2022/12/15 03:18:19;;;;;;;35.05;14.82;;;;;;;-11.10;100.00;97510.41;4218060;27;20058;-74
2022/12/15 03:20:19;;;;;;;34.25;15.02;;;;;;;-11.08;100.00;97515.50;4218347;28;20036;-74
2022/12/15 03:22:20;;;;;;;37.55;14.65;;;;;;;-11.08;100.00;97512.84;4218629;27;20506;-74
2022/12/15 03:24:20;;;;;;;32.13;13.63;;;;;;;-10.98;100.00;97518.22;4217418;27;20055;-74
2022/12/15 03:26:20;;;;;;;25.35;13.50;;;;;;;-10.96;100.00;97520.59;4218559;27;20064;-74
2022/12/15 03:28:21;;;;;;;32.30;13.98;;;;;;;-11.07;100.00;97519.78;4218005;27;20867;-74
2022/12/15 03:30:21;;;;;;;21.67;12.30;;;;;;;-11.10;100.00;97520.28;4220288;27;20035;-74
2022/12/15 03:32:22;;;;;;;28.02;12.63;;;;;;;-11.19;100.00;97529.88;4220735;28;20046;-74
2022/12/15 03:34:22;;;;;;;26.70;13.23;;;;;;;-11.32;100.00;97519.69;4220368;28;20070;-74
2022/12/15 03:36:23;;;;;;;30.38;13.60;;;;;;;-11.41;100.00;97522.06;4220745;27;20035;-74
2022/12/15 03:38:23;;;;;;;31.52;14.27;;;;;;;-11.33;100.00;97529.56;4221752;28;20035;-74
2022/12/15 03:40:23;;;;;;;28.40;13.07;;;;;;;-11.27;100.00;97533.03;4221712;27;20147;-74
2022/12/15 03:44:42;;;;;;;27.77;12.00;;;;;;;-11.12;100.00;97538.44;4219922;28;20104;-74
2022/12/15 03:46:43;;;;;;;35.08;12.48;;;;;;;-11.10;100.00;97547.81;4219434;28;20475;-74
2022/12/15 03:48:43;;;;;;;30.30;13.35;;;;;;;-11.08;100.00;97547.56;4219628;27;20120;-74
2022/12/15 03:50:44;;;;;;;29.60;13.68;;;;;;;-11.19;100.00;97538.69;4221657;28;20051;-74
2022/12/15 03:52:48;;;;;;;31.50;13.00;;;;;;;-11.17;100.00;97546.44;4220672;27;20168;-74
2022/12/15 03:54:48;;;;;;;26.27;12.30;;;;;;;-11.13;100.00;97540.31;4221273;27;20315;-74
2022/12/15 03:56:49;;;;;;;26.77;11.63;;;;;;;-11.10;100.00;97544.31;4219229;28;20347;-74
2022/12/15 03:58:49;;;;;;;27.88;12.18;;;;;;;-11.03;100.00;97546.75;4217599;28;20143;-74
2022/12/15 04:00:49;;;;;;;34.78;13.90;;;;;;;-11.03;100.00;97547.56;4220321;27;20039;-74
2022/12/15 04:02:50;;;;;;;33.28;12.23;;;;;;;-10.98;100.00;97557.47;4218926;27;20065;-74
2022/12/15 04:04:51;;;;;;;24.30;10.75;;;;;;;-11.05;100.00;97553.19;4220705;28;20122;-74
2022/12/15 04:06:51;;;;;;;21.55;10.73;;;;;;;-11.10;100.00;97561.16;4219950;28;20082;-74
2022/12/15 04:08:51;;;;;;;24.95;11.27;;;;;;;-11.12;100.00;97555.28;4220356;27;20118;-74
2022/12/15 04:10:52;;;;;;;24.58;11.80;;;;;;;-11.16;100.00;97548.88;4220058;27;20454;-74
2022/12/15 04:13:03;;;;;;;26.05;9.93;;;;;;;-11.15;100.00;97549.66;4218943;28;20502;-73
2022/12/15 04:15:05;;;;;;;25.65;10.60;;;;;;;-11.19;100.00;97551.25;4219238;27;20055;-74
2022/12/15 04:17:05;;;;;;;31.40;12.32;;;;;;;-11.17;100.00;97547.25;4221229;28;20406;-74
2022/12/15 04:21:29;;;;;;;19.98;9.60;;;;;;;-11.23;100.00;97561.66;4191402;27;20043;-73
2022/12/15 04:23:29;;;;;;;22.05;10.18;;;;;;;-11.26;100.00;97569.34;4218728;27;20044;-74
2022/12/15 05:32:47;;;;;;;24.52;11.52;;;;;;;-11.93;100.00;97632.22;4218069;27;20525;-74
2022/12/15 05:34:47;;;;;;;27.45;11.63;;;;;;;-11.95;100.00;97637.81;4218144;27;20048;-73
2022/12/15 05:36:49;;;;;;;26.35;11.75;;;;;;;-11.90;100.00;97637.06;4218091;28;20031;-73
2022/12/15 05:38:51;;;;;;;32.58;11.13;;;;;;;-11.89;100.00;97640.53;4217838;27;20439;-73
2022/12/15 05:40:51;;;;;;;23.23;10.95;;;;;;;-11.84;100.00;97635.22;4220450;27;20440;-73
2022/12/15 05:42:51;;;;;;;31.42;12.65;;;;;;;-11.78;100.00;97650.19;4218171;28;20074;-74
2022/12/15 05:44:52;;;;;;;28.42;12.65;;;;;;;-11.79;100.00;97648.56;4218437;27;20422;-73
2022/12/15 05:46:52;;;;;;;29.77;12.57;;;;;;;-11.72;100.00;97652.63;4219703;28;20051;-73
2022/12/15 05:48:52;;;;;;;24.27;11.52;;;;;;;-11.68;100.00;97647.59;4217923;28;20077;-73
2022/12/15 05:50:53;;;;;;;29.25;11.88;;;;;;;-11.67;100.00;97650.00;4220710;27;20328;-73
2022/12/15 05:52:56;;;;;;;26.15;12.68;;;;;;;-11.76;100.00;97650.72;4216704;27;20105;-73
2022/12/15 05:54:56;;;;;;;22.33;13.23;;;;;;;-11.83;100.00;97656.31;4216727;27;20075;-73
2022/12/15 05:56:57;;;;;;;30.65;13.27;;;;;;;-11.84;100.00;97661.88;4158371;27;20318;-73
2022/12/15 05:58:57;;;;;;;37.00;16.63;;;;;;;-11.84;100.00;97667.22;4218771;28;20049;-73
2022/12/15 06:01:06;;;;;;;29.48;15.25;;;;;;;-11.85;100.00;97673.63;4215435;28;20036;-73
2022/12/15 06:03:06;;;;;;;32.63;15.88;;;;;;;-11.94;100.00;97673.28;4212689;28;20050;-73
2022/12/15 06:05:07;;;;;;;34.05;15.77;;;;;;;-12.00;100.00;97682.28;4217531;28;20604;-73
2022/12/15 06:07:07;;;;;;;31.55;14.48;;;;;;;-12.10;100.00;97684.88;4215328;28;20051;-73
2022/12/15 06:09:08;;;;;;;35.25;14.45;;;;;;;-12.09;100.00;97686.47;4216800;28;20028;-73
2022/12/15 06:11:11;;;;;;;32.10;12.75;;;;;;;-12.24;100.00;97687.13;4217251;27;20417;-73
2022/12/15 06:13:12;;;;;;;27.75;12.00;;;;;;;-12.29;100.00;97687.88;4217977;27;20380;-73
2022/12/15 06:15:12;;;;;;;27.38;12.15;;;;;;;-12.23;100.00;97686.09;4216980;28;20047;-73
2022/12/15 06:17:12;;;;;;;24.60;12.05;;;;;;;-12.17;100.00;97687.72;4215421;28;20043;-73
2022/12/15 06:19:13;;;;;;;22.83;11.18;;;;;;;-12.22;100.00;97687.69;4217472;27;20071;-73
2022/12/15 06:21:16;;;;;;;30.60;11.95;;;;;;;-12.30;100.00;97682.81;4216244;28;20440;-73
2022/12/15 06:23:17;;;;;;;30.20;12.85;;;;;;;-12.22;100.00;97690.34;4212554;28;20055;-73
2022/12/15 06:25:17;;;;;;;26.98;11.82;;;;;;;-12.27;100.00;97693.75;4213576;28;20048;-73
2022/12/15 06:27:18;;;;;;;30.23;13.27;;;;;;;-12.23;100.00;97694.88;4216074;27;20458;-73
2022/12/15 06:29:19;;;;;;;29.88;12.07;;;;;;;-12.23;100.00;97702.06;4216605;28;20153;-73
2022/12/15 06:31:24;;;;;;;24.58;12.07;;;;;;;-12.25;100.00;97709.50;4216435;28;20067;-73
2022/12/15 06:33:24;;;;;;;25.35;10.98;;;;;;;-12.25;100.00;97707.63;4216890;27;20039;-73
2022/12/15 06:35:24;;;;;;;21.98;11.13;;;;;;;-12.23;100.00;97710.88;4216742;28;20047;-73
2022/12/15 06:37:25;;;;;;;29.98;11.02;;;;;;;-12.25;100.00;97714.84;4215476;27;20040;-73
2022/12/15 06:39:25;;;;;;;23.25;11.52;;;;;;;-12.25;100.00;97712.16;4215037;28;20383;-73
2022/12/15 06:41:26;;;;;;;25.10;11.73;;;;;;;-12.33;100.00;97702.75;4215180;28;20039;-73
2022/12/15 06:43:28;;;;;;;25.40;11.25;;;;;;;-12.28;100.00;97699.34;4213268;28;20047;-73
2022/12/15 06:45:28;;;;;;;18.40;10.23;;;;;;;-12.33;100.00;97708.09;4214847;28;20529;-73
2022/12/15 06:47:28;;;;;;;29.20;10.60;;;;;;;-12.32;100.00;97700.91;4213316;28;20035;-73
2022/12/15 06:49:29;;;;;;;22.77;9.77;;;;;;;-12.36;100.00;97700.59;4211969;28;20187;-73
2022/12/15 06:51:29;;;;;;;30.55;11.52;;;;;;;-12.36;100.00;97705.13;4219239;27;20084;-73
2022/12/15 06:53:29;;;;;;;23.38;11.50;;;;;;;-12.41;100.00;97703.22;4215067;27;20148;-73
2022/12/15 06:55:30;;;;;;;27.23;10.20;;;;;;;-12.45;100.00;97717.28;4217594;28;20039;-73
2022/12/15 06:57:30;;;;;;;24.85;10.38;;;;;;;-12.50;100.00;97716.16;4218683;28;20031;-73
2022/12/15 06:59:31;;;;;;;27.35;10.13;;;;;;;-12.54;100.00;97728.38;4218438;28;20061;-73
2022/12/15 07:01:31;;;;;;;35.65;11.95;;;;;;;-12.53;100.00;97714.00;4219238;28;20270;-73
2022/12/15 07:03:32;;;;;;;40.97;13.88;;;;;;;-12.58;100.00;97727.25;4217219;28;20094;-73
2022/12/15 07:05:32;;;;;;;38.05;15.70;;;;;;;-12.56;100.00;97733.16;4218466;28;20043;-73
2022/12/15 07:07:33;;;;;;;35.42;13.20;;;;;;;-12.66;100.00;97733.00;4218368;28;20130;-73
2022/12/15 07:09:33;;;;;;;32.33;11.65;;;;;;;-12.67;100.00;97731.41;4217855;27;20127;-73
2022/12/15 07:11:34;;;;;;;35.42;11.00;;;;;;;-12.77;100.00;97742.72;4218910;28;20079;-73
2022/12/15 07:13:34;;;;;;;30.08;11.70;;;;;;;-12.77;100.00;97747.25;4217641;28;20529;-73
2022/12/15 07:15:35;;;;;;;30.30;12.75;;;;;;;-12.66;100.00;97746.31;4218338;28;20499;-73
2022/12/15 07:17:36;;;;;;;27.30;11.18;;;;;;;-12.64;100.00;97751.44;4216970;27;20320;-73
2022/12/15 07:19:36;;;;;;;29.33;12.15;;;;;;;-12.55;100.00;97749.94;4218903;27;20040;-73
2022/12/15 07:21:37;;;;;;;24.92;11.07;;;;;;;-12.47;100.00;97749.53;4218240;27;20083;-73
2022/12/15 07:23:37;;;;;;;23.85;9.85;;;;;;;-12.51;100.00;97751.84;4216079;28;20131;-73
2022/12/15 07:25:39;;;;;;;23.30;11.32;;;;;;;-12.58;100.00;97748.56;4215380;28;20126;-73
2022/12/15 07:27:40;;;;;;;24.67;11.00;;;;;;;-12.60;100.00;97748.00;4219493;28;20043;-73
2022/12/15 07:29:41;;;;;;;24.98;10.18;;;;;;;-12.73;100.00;97748.38;4217640;28;20139;-73
2022/12/15 07:31:41;;;;;;;25.88;10.35;;;;;;;-12.54;100.00;97755.03;4218338;28;20048;-73
2022/12/15 07:33:41;;;;;;;25.55;10.80;;;;;;;-12.49;100.00;97754.31;4217950;28;20446;-73
2022/12/15 07:35:42;;;;;;;43.58;11.05;;;;;;;-12.49;100.00;97762.28;4218762;28;20043;-73
2022/12/15 07:37:42;;;;;;;40.35;13.05;;;;;;;-12.51;100.00;97759.03;4217124;28;20543;-73
2022/12/15 07:39:43;;;;;;;31.30;11.48;;;;;;;-12.47;100.00;97765.50;4218449;28;20170;-73
2022/12/15 07:41:43;;;;;;;23.98;10.55;;;;;;;-12.49;100.00;97757.75;4218061;28;20147;-73
2022/12/15 07:43:44;;;;;;;26.38;11.25;;;;;;;-12.48;100.00;97759.38;4218848;27;20047;-73
2022/12/15 07:45:50;;;;;;;24.43;10.53;;;;;;;-12.43;100.00;97749.81;4217914;27;20044;-73
2022/12/15 07:47:52;;;;;;;32.45;13.80;;;;;;;-12.26;100.00;97753.22;4219287;27;20328;-73
2022/12/15 07:49:53;;;;;;;35.80;15.17;;;;;;;-12.30;100.00;97758.25;4217783;28;20040;-73
2022/12/15 07:51:57;;;;;;;36.75;16.25;;;;;;;-12.19;100.00;97769.84;4218019;28;20274;-73
2022/12/15 07:53:57;;;;;;;32.03;13.75;;;;;;;-12.22;100.00;97771.16;4217947;27;20047;-73
2022/12/15 07:55:59;;;;;;;29.20;14.77;;;;;;;-12.19;100.00;97767.16;4218652;28;20040;-73
2022/12/15 07:57:59;;;;;;;36.70;14.05;;;;;;;-12.27;100.00;97768.41;4217350;28;20051;-73
2022/12/15 07:59:59;;;;;;;32.85;13.75;;;;;;;-12.39;100.00;97778.41;4217662;28;20051;-73
2022/12/15 08:02:02;;;;;;;34.78;15.48;;;;;;;-12.62;100.00;97775.97;4218756;27;20048;-73
2022/12/15 08:04:03;;;;;;;27.25;14.75;;;;;;;-12.63;100.00;97767.16;4217209;27;20245;-73
2022/12/15 08:06:11;;;;;;;34.78;14.50;;;;;;;-12.66;100.00;97764.97;4217366;28;20015;-73
2022/12/15 08:08:12;;;;;;;41.33;17.58;;;;;;;-12.68;100.00;97777.75;4218395;28;20036;-73
2022/12/15 08:10:12;;;;;;;42.92;14.95;;;;;;;-12.72;100.00;97779.31;4219113;27;20042;-73
2022/12/15 08:12:13;;;;;;;25.30;13.63;;;;;;;-12.76;100.00;97775.50;4218834;27;20055;-73
2022/12/15 08:14:14;;;;;;;39.00;15.57;;;;;;;-12.87;100.00;97779.88;4218371;28;20413;-73
2022/12/15 08:16:14;;;;;;;29.48;14.23;;;;;;;-12.86;100.00;97791.34;4220368;27;20023;-73
2022/12/15 08:18:14;;;;;;;29.48;13.15;;;;;;;-12.90;100.00;97790.25;4221821;27;20054;-73
2022/12/15 08:20:15;;;;;;;26.77;11.05;;;;;;;-12.94;100.00;97786.44;4220508;27;20565;-73
2022/12/15 08:22:15;;;;;;;19.75;9.43;;;;;;;-13.04;100.00;97790.56;4221356;28;20775;-73
2022/12/15 08:24:16;;;;;;;25.50;11.63;;;;;;;-13.13;100.00;97794.69;4221898;27;20031;-73
2022/12/15 08:26:17;;;;;;;28.80;10.93;;;;;;;-13.15;100.00;97796.78;4219702;27;20410;-73
2022/12/15 08:28:18;;;;;;;37.65;13.50;;;;;;;-13.20;100.00;97790.59;4220699;27;20501;-73
2022/12/15 08:30:18;;;;;;;32.33;12.55;;;;;;;-13.20;100.00;97788.75;4220848;28;20059;-73
2022/12/15 08:32:19;;;;;;;30.85;12.35;;;;;;;-13.23;100.00;97789.25;4220538;28;20144;-73
2022/12/15 08:34:20;;;;;;;28.98;14.68;;;;;;;-13.23;100.00;97791.09;4220319;28;20032;-73
2022/12/15 08:36:20;;;;;;;50.78;18.85;;;;;;;-13.21;100.00;97789.78;4213311;28;20600;-73
2022/12/15 08:38:20;;;;;;;43.83;19.40;;;;;;;-13.14;100.00;97795.75;4220527;27;20177;-73
2022/12/15 08:40:21;;;;;;;44.60;17.73;;;;;;;-13.09;100.00;97803.78;4220491;27;20062;-73
2022/12/15 08:42:21;;;;;;;51.30;17.13;;;;;;;-12.99;100.00;97805.00;4221161;28;20031;-73
2022/12/15 08:44:21;;;;;;;66.35;22.90;;;;;;;-12.83;100.00;97798.84;4221350;27;20357;-73
2022/12/15 08:46:25;;;;;;;60.50;19.20;;;;;;;-12.82;100.00;97795.97;4221257;27;20044;-73
2022/12/15 08:48:26;;;;;;;54.28;18.05;;;;;;;-12.65;100.00;97793.25;4220595;27;20039;-73
2022/12/15 08:50:26;;;;;;;44.97;18.75;;;;;;;-12.49;100.00;97783.63;4220063;28;20427;-73
2022/12/15 08:52:26;;;;;;;54.83;20.42;;;;;;;-12.40;100.00;97795.47;4220467;28;20325;-73
2022/12/15 08:54:27;;;;;;;57.05;20.63;;;;;;;-12.38;100.00;97793.34;4220504;28;20221;-73
2022/12/15 08:56:28;;;;;;;57.88;21.63;;;;;;;-12.43;100.00;97793.28;4220841;28;20040;-73
2022/12/15 08:58:28;;;;;;;69.88;24.33;;;;;;;-12.50;100.00;97793.44;4220720;27;20039;-73
2022/12/15 09:00:28;;;;;;;83.03;25.90;;;;;;;-12.54;100.00;97792.34;4220979;28;20042;-73
2022/12/15 09:02:29;;;;;;;67.90;24.58;;;;;;;-12.41;100.00;97804.50;4219320;27;20035;-73
2022/12/15 09:04:29;;;;;;;81.13;31.65;;;;;;;-12.24;100.00;97807.13;4220105;28;20640;-73
2022/12/15 09:06:32;;;;;;;75.55;29.77;;;;;;;-12.20;100.00;97810.88;4220189;27;20039;-73
2022/12/15 09:08:33;;;;;;;60.28;23.33;;;;;;;-12.26;100.00;97812.69;4219292;27;20043;-73
2022/12/15 09:10:33;;;;;;;57.15;22.02;;;;;;;-12.19;100.00;97823.16;4220278;28;20047;-73
2022/12/15 09:12:33;;;;;;;46.58;18.92;;;;;;;-12.18;100.00;97830.91;4219555;27;20078;-73
2022/12/15 09:14:34;;;;;;;48.85;17.00;;;;;;;-12.20;100.00;97825.03;4220704;27;20036;-73
2022/12/15 09:16:34;;;;;;;49.83;18.98;;;;;;;-12.26;100.00;97833.22;4220649;28;20105;-73
2022/12/15 09:18:34;;;;;;;44.45;17.50;;;;;;;-12.23;100.00;97830.06;4220897;27;20094;-73
2022/12/15 09:20:35;;;;;;;167.18;46.00;;;;;;;-12.24;100.00;97839.13;4219857;28;20491;-73
2022/12/15 09:22:35;;;;;;;78.95;30.90;;;;;;;-12.28;100.00;97840.66;4210703;28;20032;-73
2022/12/15 09:24:35;;;;;;;59.22;26.63;;;;;;;-12.33;100.00;97841.38;4221064;27;20313;-73
2022/12/15 09:26:36;;;;;;;55.90;23.73;;;;;;;-12.33;100.00;97836.03;4219942;28;20075;-73
2022/12/15 09:28:37;;;;;;;49.25;19.80;;;;;;;-12.37;100.00;97821.63;4218373;27;20039;-73
2022/12/15 09:30:37;;;;;;;39.60;19.13;;;;;;;-12.40;100.00;97823.97;4220387;28;20034;-73
2022/12/15 09:32:37;;;;;;;38.28;17.33;;;;;;;-12.42;100.00;97821.53;4219999;27;20036;-73
2022/12/15 09:34:39;;;;;;;43.05;17.08;;;;;;;-12.40;100.00;97829.31;4220501;28;20062;-73
2022/12/15 09:36:39;;;;;;;34.35;15.52;;;;;;;-12.41;100.00;97833.00;4220795;28;20470;-73
2022/12/15 09:38:41;;;;;;;50.47;19.05;;;;;;;-12.38;100.00;97825.34;4219317;28;20118;-73
2022/12/15 09:40:41;;;;;;;42.65;17.30;;;;;;;-12.40;100.00;97827.44;4220758;28;20122;-73
2022/12/15 09:42:51;;;;;;;37.40;17.38;;;;;;;-12.40;100.00;97824.78;4218768;27;20075;-73
2022/12/15 09:45:24;;;;;;;56.33;20.38;;;;;;;-12.34;100.00;97826.44;4219962;28;20070;-73
2022/12/15 09:47:40;;;;;;;45.38;19.98;;;;;;;-12.25;100.00;97840.16;4214433;27;20043;-73
2022/12/15 09:49:57;;;;;;;41.70;20.02;;;;;;;-12.19;100.00;97837.31;4218636;28;20054;-73
2022/12/15 09:52:05;;;;;;;32.25;16.23;;;;;;;-12.09;100.00;97849.16;4220721;27;20375;-73
2022/12/15 09:54:09;;;;;;;33.55;18.10;;;;;;;-11.97;100.00;97848.00;4218618;28;20044;-73
2022/12/15 09:56:18;;;;;;;49.53;18.40;;;;;;;-11.83;100.00;97850.25;4218500;27;20172;-73
2022/12/15 09:58:48;;;;;;;44.78;19.00;;;;;;;-11.71;100.00;97858.94;4220144;28;20019;-73
2022/12/15 10:00:57;;;;;;;36.42;17.55;;;;;;;-11.62;100.00;97866.22;4220308;27;20039;-73
2022/12/15 10:03:36;;;;;;;35.92;17.30;;;;;;;-11.59;100.00;97862.25;4219603;28;20043;-73
2022/12/15 10:05:46;;;;;;;31.90;14.70;;;;;;;-11.54;100.00;97864.97;4218719;28;20051;-73
2022/12/15 10:07:48;;;;;;;29.67;13.48;;;;;;;-11.54;100.00;97864.97;4219179;27;20048;-73
2022/12/15 10:09:49;;;;;;;43.30;16.50;;;;;;;-11.53;100.00;97863.13;4218316;28;20420;-73
2022/12/15 10:11:57;;;;;;;40.47;15.98;;;;;;;-11.47;100.00;97870.94;4219152;27;20047;-73
2022/12/15 10:14:09;;;;;;;42.03;16.10;;;;;;;-11.41;100.00;97875.28;4218968;27;20043;-73
2022/12/15 10:16:19;;;;;;;40.10;16.00;;;;;;;-11.33;100.00;97868.69;4219787;28;20364;-73
2022/12/15 10:18:23;;;;;;;29.55;14.05;;;;;;;-11.27;100.00;97858.84;4218783;28;20154;-73
2022/12/15 10:20:26;;;;;;;46.30;19.98;;;;;;;-11.19;100.00;97861.06;4219738;28;20511;-73
2022/12/15 10:22:31;;;;;;;38.78;17.70;;;;;;;-11.14;100.00;97848.56;4218832;27;20089;-73
2022/12/15 10:24:32;;;;;;;32.55;17.23;;;;;;;-11.10;100.00;97838.97;4218123;27;20051;-73
2022/12/15 10:26:33;;;;;;;35.78;16.40;;;;;;;-11.03;100.00;97846.78;4219749;27;20490;-73
2022/12/15 10:28:43;;;;;;;40.40;18.02;;;;;;;-10.95;100.00;97838.28;4219229;27;20490;-73
2022/12/15 10:30:52;;;;;;;43.63;17.67;;;;;;;-10.90;100.00;97837.53;4219396;28;20047;-73
2022/12/15 10:33:01;;;;;;;43.80;18.55;;;;;;;-10.81;100.00;97841.34;4218584;28;20042;-73
2022/12/15 10:35:13;;;;;;;40.67;18.00;;;;;;;-10.69;100.00;97839.28;4219473;28;20104;-73
2022/12/15 10:37:17;;;;;;;38.50;16.08;;;;;;;-10.59;100.00;97844.72;4219320;28;20790;-73
2022/12/15 10:39:19;;;;;;;32.50;15.27;;;;;;;-10.53;100.00;97845.53;4218566;28;20047;-73
2022/12/15 10:41:21;;;;;;;;;;;;;;;-10.49;100.00;97850.13;4218672;27;20043;-73
2022/12/15 10:43:24;;;;;;;30.58;12.88;;;;;;;-10.45;100.00;97853.09;4218603;28;19911;-73
2022/12/15 10:45:37;;;;;;;30.80;14.93;;;;;;;-10.42;100.00;97849.91;4219213;28;20268;-73
2022/12/15 10:47:37;;;;;;;37.78;15.77;;;;;;;-10.37;100.00;97851.81;4217722;28;20048;-73
2022/12/15 10:49:38;;;;;;;45.55;19.50;;;;;;;-10.31;100.00;97846.22;4217835;28;20063;-73
2022/12/15 10:51:49;;;;;;;55.22;24.02;;;;;;;-10.24;100.00;97840.66;4218509;27;20115;-73
2022/12/15 10:53:51;;;;;;;45.33;20.20;;;;;;;-10.19;100.00;97854.00;4218657;28;20122;-73
2022/12/15 10:56:00;;;;;;;27.15;14.07;;;;;;;-10.17;100.00;97841.19;4218527;28;20040;-73
2022/12/15 10:58:02;;;;;;;39.25;19.40;;;;;;;-10.11;100.00;97844.69;4219204;28;20042;-73
2022/12/15 11:00:26;;;;;;;32.10;15.85;;;;;;;-9.96;100.00;97836.72;4218508;28;20951;-73
2022/12/15 11:02:35;;;;;;;29.52;13.48;;;;;;;-9.65;100.00;97832.31;4218653;27;20395;-73
2022/12/15 11:04:35;;;;;;;29.42;13.82;;;;;;;-9.45;100.00;97821.63;4219162;28;20085;-73
2022/12/15 11:06:41;;;;;;;28.92;14.35;;;;;;;-9.24;100.00;97825.16;4217820;27;20416;-73
2022/12/15 11:08:43;;;;;;;35.00;15.10;;;;;;;-9.15;100.00;97825.44;4219088;27;20039;-73
2022/12/15 11:13:21;;;;;;;43.70;21.35;;;;;;;-8.99;100.00;97827.06;4217601;27;20115;-73
2022/12/15 11:15:21;;;;;;;40.83;19.08;;;;;;;-8.87;100.00;97827.59;4218183;27;20047;-73
2022/12/15 11:17:22;;;;;;;38.25;17.55;;;;;;;-8.81;100.00;97823.03;4218686;28;20052;-74
2022/12/15 11:19:44;;;;;;;47.08;18.63;;;;;;;-8.72;100.00;97834.03;4219148;28;20197;-73
2022/12/15 11:21:50;;;;;;;46.17;18.20;;;;;;;-8.70;100.00;97830.00;4217846;28;20112;-73
2022/12/15 11:23:51;;;;;;;36.72;17.73;;;;;;;-8.71;100.00;97824.91;4216996;28;20043;-73
2022/12/15 11:25:59;;;;;;;40.42;18.55;;;;;;;-8.65;100.00;97835.34;4218989;27;20533;-73
2022/12/15 11:28:05;;;;;;;38.05;19.77;;;;;;;-8.55;100.00;97839.91;4218491;28;20116;-73
2022/12/15 11:30:18;;;;;;;43.75;19.00;;;;;;;-8.52;100.00;97836.69;4217819;27;20040;-74
2022/12/15 11:32:27;;;;;;;42.70;17.15;;;;;;;-8.57;100.00;97837.50;4217609;28;20024;-73
2022/12/15 11:34:41;;;;;;;38.50;19.50;;;;;;;-8.59;100.00;97836.16;4218274;27;20043;-73
2022/12/15 11:36:56;;;;;;;32.58;15.93;;;;;;;-8.60;100.00;97837.25;4219447;28;20043;-73
2022/12/15 11:39:02;;;;;;;32.08;15.98;;;;;;;-8.53;100.00;97833.19;4218521;28;20088;-73
2022/12/15 11:41:35;;;;;;;39.55;16.90;;;;;;;-8.44;100.00;97841.50;4218190;28;20364;-74